Time;durP1;ratioP1;P1;durP2;ratioP2;P2;SDS_P1;SDS_P2;PMS_P1;PMS_P2;Temp;Humidity;BMP_temperature;BMP_pressure;BME280_temperature;BME280_humidity;BME280_pressure;Samples;Min_cycle;Max_cycle;Signal;HPM_P1;HPM_P2
2021/06/07 00:01:05;;;;;;;;;;;24.20;60.10;;;;;;5073659;28;19920;-67
2021/06/07 00:03:31;;;;;;;;;;;24.20;59.90;;;;;;5069887;28;20367;-67
2021/06/07 00:05:56;;;;;;;;;;;24.20;59.80;;;;;;5067350;28;20011;-67
2021/06/07 00:08:22;;;;;;;;;;;24.20;59.90;;;;;;5066784;28;19916;-67
2021/06/07 00:10:47;;;;;;;;;;;24.20;59.90;;;;;;5066242;28;19969;-66
2021/06/07 00:13:13;;;;;;;;;;;24.20;60.00;;;;;;5062005;28;20387;-66
2021/06/07 00:15:38;;;;;;;;;;;24.20;59.80;;;;;;5062735;28;19925;-67
2021/06/07 00:18:04;;;;;;;;;;;24.10;59.80;;;;;;5062064;28;20405;-66
2021/06/07 00:20:31;;;;;;;;;;;24.20;59.80;;;;;;5064963;28;19920;-68
2021/06/07 00:22:57;;;;;;;;;;;24.20;59.80;;;;;;5064134;28;20007;-67
2021/06/07 00:25:22;;;;;;;;;;;24.20;59.90;;;;;;5067380;28;20015;-66
2021/06/07 00:27:48;;;;;;;;;;;24.20;60.00;;;;;;5069132;28;19952;-67
2021/06/07 00:30:13;;;;;;;;;;;24.20;59.60;;;;;;5064524;28;19917;-66
2021/06/07 00:32:39;;;;;;;;;;;24.20;59.90;;;;;;5057691;28;20482;-68
2021/06/07 00:35:04;;;;;;;;;;;24.20;60.00;;;;;;5065054;28;20341;-66
2021/06/07 00:37:30;;;;;;;;;;;24.20;59.80;;;;;;5043317;28;19959;-67
2021/06/07 00:39:55;;;;;;;;;;;24.20;59.90;;;;;;5060677;28;20369;-69
2021/06/07 00:42:21;;;;;;;;;;;24.20;60.00;;;;;;5069055;28;19924;-68
2021/06/07 00:44:46;;;;;;;;;;;24.20;59.80;;;;;;5063996;28;19945;-67
2021/06/07 00:47:12;;;;;;;;;;;24.20;59.90;;;;;;5056560;28;20526;-67
2021/06/07 00:49:37;;;;;;;;;;;24.20;59.90;;;;;;5060184;28;19916;-68
2021/06/07 00:52:03;;;;;;;;;;;24.10;60.00;;;;;;5067957;28;20001;-67
2021/06/07 00:54:28;;;;;;;;;;;24.20;59.80;;;;;;5064616;28;19931;-62
2021/06/07 00:56:53;;;;;;;;;;;24.10;59.80;;;;;;5064770;28;20602;-67
2021/06/07 00:59:19;;;;;;;;;;;24.20;59.80;;;;;;5062887;28;20006;-69
2021/06/07 01:01:44;;;;;;;;;;;24.20;59.80;;;;;;5062648;28;19917;-68
2021/06/07 01:04:10;;;;;;;;;;;24.20;59.80;;;;;;5061995;28;19920;-66
2021/06/07 01:06:37;;;;;;;;;;;24.20;59.60;;;;;;5074529;28;19967;-69
2021/06/07 01:09:03;;;;;;;;;;;24.20;59.70;;;;;;5060813;28;20007;-68
2021/06/07 01:11:28;;;;;;;;;;;24.20;59.80;;;;;;5059817;28;20282;-67
2021/06/07 01:13:54;;;;;;;;;;;24.20;59.70;;;;;;5060472;28;20028;-68
2021/06/07 01:16:19;;;;;;;;;;;24.20;59.80;;;;;;5060046;28;19924;-68
2021/06/07 01:18:45;;;;;;;;;;;24.20;59.60;;;;;;5067046;28;19916;-66
2021/06/07 01:21:11;;;;;;;;;;;24.20;60.10;;;;;;5061244;28;20501;-69
2021/06/07 01:23:38;;;;;;;;;;;24.20;59.80;;;;;;5064752;28;19928;-66
2021/06/07 01:26:04;;;;;;;;;;;24.20;59.80;;;;;;5061025;28;19921;-66
2021/06/07 01:28:29;;;;;;;;;;;24.20;59.80;;;;;;5069398;28;20355;-68
2021/06/07 01:30:55;;;;;;;;;;;24.20;59.70;;;;;;5064859;28;19920;-69
2021/06/07 01:33:22;;;;;;;;;;;24.20;59.60;;;;;;5060743;28;19916;-66
2021/06/07 01:35:47;;;;;;;;;;;24.20;59.80;;;;;;5060487;28;19963;-67
2021/06/07 01:38:13;;;;;;;;;;;24.20;59.70;;;;;;5060293;28;20001;-68
2021/06/07 01:40:39;;;;;;;;;;;24.20;59.60;;;;;;5067501;28;19924;-67
2021/06/07 01:43:05;;;;;;;;;;;24.20;59.70;;;;;;5060098;28;19929;-69
2021/06/07 01:45:31;;;;;;;;;;;24.20;59.70;;;;;;5061060;28;19927;-67
2021/06/07 01:47:57;;;;;;;;;;;24.20;59.60;;;;;;5060104;28;19920;-66
2021/06/07 01:50:22;;;;;;;;;;;24.20;59.70;;;;;;5064368;28;20025;-67
2021/06/07 01:52:48;;;;;;;;;;;24.10;59.70;;;;;;5044891;28;20589;-66
2021/06/07 01:55:20;;;;;;;;;;;24.20;59.70;;;;;;5060206;28;19917;-65
2021/06/07 01:57:46;;;;;;;;;;;24.20;59.70;;;;;;5060140;28;19951;-69
2021/06/07 02:00:13;;;;;;;;;;;24.20;59.60;;;;;;5046305;28;19963;-66
2021/06/07 02:02:42;;;;;;;;;;;24.20;59.70;;;;;;5061449;28;19935;-67
2021/06/07 02:05:08;;;;;;;;;;;24.10;59.60;;;;;;5059560;28;20008;-67
2021/06/07 02:07:33;;;;;;;;;;;24.20;59.70;;;;;;5062606;28;20409;-67
2021/06/07 02:09:58;;;;;;;;;;;24.20;59.60;;;;;;5062034;28;20329;-67
2021/06/07 02:12:24;;;;;;;;;;;24.20;59.60;;;;;;5059948;28;19931;-68
2021/06/07 02:14:49;;;;;;;;;;;24.10;59.50;;;;;;5063966;28;19947;-67
2021/06/07 02:17:15;;;;;;;;;;;24.20;59.40;;;;;;5059553;28;19916;-67
2021/06/07 02:19:43;;;;;;;;;;;24.20;59.60;;;;;;5059607;28;20374;-67
2021/06/07 02:22:09;;;;;;;;;;;24.20;59.60;;;;;;5043343;28;20946;-69
2021/06/07 02:24:34;;;;;;;;;;;24.10;59.40;;;;;;5063896;28;19916;-68
2021/06/07 02:26:59;;;;;;;;;;;24.20;59.50;;;;;;5063530;28;19916;-66
2021/06/07 02:29:25;;;;;;;;;;;24.20;59.60;;;;;;5072202;28;20045;-66
2021/06/07 02:31:50;;;;;;;;;;;24.20;59.60;;;;;;5039833;28;744452;-66
2021/06/07 02:34:16;;;;;;;;;;;24.20;59.60;;;;;;5061467;28;20540;-63
2021/06/07 02:36:42;;;;;;;;;;;24.20;59.40;;;;;;5067429;28;19924;-67
2021/06/07 02:39:08;;;;;;;;;;;24.20;59.50;;;;;;5067213;28;19930;-68
2021/06/07 02:41:33;;;;;;;;;;;24.20;59.50;;;;;;5065897;28;19920;-66
2021/06/07 02:43:59;;;;;;;;;;;24.20;59.50;;;;;;5064540;28;20643;-68
2021/06/07 02:46:24;;;;;;;;;;;24.20;60.20;;;;;;5070715;28;19920;-66
2021/06/07 02:48:50;;;;;;;;;;;24.20;59.60;;;;;;5068658;28;20117;-66
2021/06/07 02:51:15;;;;;;;;;;;24.20;59.40;;;;;;5070354;28;19928;-66
2021/06/07 02:53:41;;;;;;;;;;;24.20;59.50;;;;;;5066871;28;19920;-67
2021/06/07 02:56:06;;;;;;;;;;;24.10;59.40;;;;;;5051608;28;20428;-67
2021/06/07 02:58:32;;;;;;;;;;;24.20;59.50;;;;;;5063775;28;19964;-66
2021/06/07 03:01:07;;;;;;;;;;;24.20;60.30;;;;;;5071442;28;19928;-67
2021/06/07 03:03:32;;;;;;;;;;;24.10;59.50;;;;;;5063989;28;20034;-68
2021/06/07 03:05:58;;;;;;;;;;;24.10;59.40;;;;;;5068932;28;20478;-69
2021/06/07 03:08:25;;;;;;;;;;;24.20;59.60;;;;;;5064105;28;19921;-67
2021/06/07 03:10:52;;;;;;;;;;;24.10;59.60;;;;;;5070485;28;20534;-67
2021/06/07 03:13:17;;;;;;;;;;;24.20;59.70;;;;;;5063900;28;19927;-68
2021/06/07 03:15:43;;;;;;;;;;;24.10;59.50;;;;;;5066594;28;19920;-66
2021/06/07 03:18:08;;;;;;;;;;;24.10;59.50;;;;;;5068020;28;19940;-66
2021/06/07 03:20:34;;;;;;;;;;;24.10;59.50;;;;;;5066802;28;19924;-67
2021/06/07 03:23:00;;;;;;;;;;;24.10;59.60;;;;;;5047291;28;19930;-68
2021/06/07 03:25:26;;;;;;;;;;;24.10;59.40;;;;;;5065360;28;19970;-66
2021/06/07 03:27:51;;;;;;;;;;;24.10;59.40;;;;;;5066977;28;19924;-65
2021/06/07 03:30:17;;;;;;;;;;;24.20;59.40;;;;;;5064306;28;19920;-66
2021/06/07 03:32:42;;;;;;;;;;;24.10;59.40;;;;;;5068700;28;19974;-67
2021/06/07 03:35:08;;;;;;;;;;;24.10;59.50;;;;;;5050128;28;19920;-67
2021/06/07 03:37:34;;;;;;;;;;;24.10;59.50;;;;;;5068420;28;19927;-67
2021/06/07 03:39:59;;;;;;;;;;;24.10;59.50;;;;;;5047562;28;19916;-66
2021/06/07 03:42:25;;;;;;;;;;;24.10;59.50;;;;;;5062180;28;19964;-68
2021/06/07 03:44:50;;;;;;;;;;;24.10;59.60;;;;;;5059220;28;20659;-67
2021/06/07 03:47:15;;;;;;;;;;;24.10;59.50;;;;;;5044716;28;20013;-65
2021/06/07 03:49:41;;;;;;;;;;;24.10;59.40;;;;;;5075147;28;20499;-70
2021/06/07 03:52:06;;;;;;;;;;;24.10;59.60;;;;;;5062563;28;19920;-67
2021/06/07 03:54:32;;;;;;;;;;;24.10;59.60;;;;;;5068955;28;19932;-67
2021/06/07 03:56:57;;;;;;;;;;;24.10;59.60;;;;;;5071138;28;19971;-68
2021/06/07 03:59:23;;;;;;;;;;;24.10;59.60;;;;;;5076887;28;20338;-68
2021/06/07 04:01:48;;;;;;;;;;;24.10;59.70;;;;;;5063853;28;19970;-67
2021/06/07 04:04:14;;;;;;;;;;;24.10;59.60;;;;;;5062859;28;19924;-68
2021/06/07 04:06:39;;;;;;;;;;;24.10;59.60;;;;;;5066132;28;19921;-69
2021/06/07 04:09:05;;;;;;;;;;;24.10;59.50;;;;;;5068118;28;19928;-66
2021/06/07 04:11:30;;;;;;;;;;;24.10;59.60;;;;;;5064172;28;19931;-67
2021/06/07 04:13:56;;;;;;;;;;;24.10;59.60;;;;;;5044063;28;19924;-67
2021/06/07 04:16:21;;;;;;;;;;;24.10;59.50;;;;;;5044019;28;19922;-66
2021/06/07 04:18:46;;;;;;;;;;;24.10;59.50;;;;;;5064819;28;19947;-66
2021/06/07 04:21:12;;;;;;;;;;;24.10;59.60;;;;;;5051023;28;20679;-63
2021/06/07 04:23:37;;;;;;;;;;;24.10;59.50;;;;;;5069465;28;19921;-67
2021/06/07 04:26:03;;;;;;;;;;;24.10;59.60;;;;;;5069966;28;20064;-67
2021/06/07 04:28:28;;;;;;;;;;;24.10;59.70;;;;;;5062669;28;19924;-68
2021/06/07 04:30:54;;;;;;;;;;;24.10;59.80;;;;;;5043935;28;19985;-66
2021/06/07 04:33:20;;;;;;;;;;;24.10;60.00;;;;;;5065810;28;19924;-63
2021/06/07 04:35:46;;;;;;;;;;;24.10;60.20;;;;;;5062448;28;19917;-65
2021/06/07 04:38:11;;;;;;;;;;;24.10;60.30;;;;;;5062571;28;19958;-67
2021/06/07 04:40:37;;;;;;;;;;;24.10;60.40;;;;;;5061763;28;20522;-66
2021/06/07 04:43:05;;;;;;;;;;;24.10;60.40;;;;;;5067289;28;19928;-67
2021/06/07 04:45:31;;;;;;;;;;;24.10;60.40;;;;;;5050387;28;19920;-68
2021/06/07 04:47:56;;;;;;;;;;;24.10;61.00;;;;;;5047216;28;19936;-69
2021/06/07 04:50:22;;;;;;;;;;;24.10;60.40;;;;;;5067611;28;20647;-65
2021/06/07 04:53:00;;;;;;;;;;;24.20;60.40;;;;;;5061764;28;19966;-68
2021/06/07 04:55:26;;;;;;;;;;;24.10;60.20;;;;;;5052157;28;19924;-66
2021/06/07 04:57:51;;;;;;;;;;;24.10;60.30;;;;;;5065170;28;19982;-66
2021/06/07 05:00:18;;;;;;;;;;;24.10;60.60;;;;;;5061431;28;20467;-63
2021/06/07 05:02:43;;;;;;;;;;;24.10;60.60;;;;;;5033881;28;20299;-67
2021/06/07 05:05:09;;;;;;;;;;;24.10;60.60;;;;;;5064835;28;19928;-67
2021/06/07 05:07:34;;;;;;;;;;;24.10;60.80;;;;;;5064468;28;19939;-67
2021/06/07 05:10:00;;;;;;;;;;;24.10;61.00;;;;;;5063764;28;20469;-67
2021/06/07 05:12:25;;;;;;;;;;;24.10;61.10;;;;;;5074746;28;19920;-66
2021/06/07 05:14:51;;;;;;;;;;;24.10;61.10;;;;;;5067787;28;19916;-68
2021/06/07 05:17:17;;;;;;;;;;;24.10;61.10;;;;;;5066022;28;19927;-69
2021/06/07 05:19:42;;;;;;;;;;;24.10;60.90;;;;;;5070034;28;19920;-68
2021/06/07 05:22:08;;;;;;;;;;;24.10;61.20;;;;;;5050750;28;19920;-67
2021/06/07 05:24:34;;;;;;;;;;;24.10;61.30;;;;;;5061980;28;19987;-69
2021/06/07 05:26:59;;;;;;;;;;;24.10;61.10;;;;;;5064011;28;19924;-66
2021/06/07 05:29:25;;;;;;;;;;;24.10;61.30;;;;;;5058611;28;19934;-66
2021/06/07 05:31:50;;;;;;;;;;;24.10;61.40;;;;;;5061410;28;19982;-67
2021/06/07 05:34:16;;;;;;;;;;;24.10;61.40;;;;;;5075219;28;19916;-66
2021/06/07 05:36:41;;;;;;;;;;;24.10;61.20;;;;;;5075608;28;20367;-67
2021/06/07 05:39:08;;;;;;;;;;;24.10;61.10;;;;;;5062180;28;19978;-67
2021/06/07 05:41:34;;;;;;;;;;;24.10;61.20;;;;;;5066321;28;19916;-67
2021/06/07 05:43:59;;;;;;;;;;;24.10;61.10;;;;;;5082648;28;20195;-67
2021/06/07 05:46:25;;;;;;;;;;;24.10;61.00;;;;;;5073587;28;20006;-67
2021/06/07 05:48:50;;;;;;;;;;;24.10;61.00;;;;;;5078838;28;19924;-67
2021/06/07 05:51:15;;;;;;;;;;;24.10;60.90;;;;;;5081846;28;19923;-67
2021/06/07 05:53:42;;;;;;;;;;;24.10;60.80;;;;;;5066276;28;19916;-67
2021/06/07 05:56:07;;;;;;;;;;;24.10;60.80;;;;;;5063750;28;19917;-68
2021/06/07 05:58:33;;;;;;;;;;;24.10;60.90;;;;;;5076042;28;20334;-66
2021/06/07 06:00:58;;;;;;;;;;;24.10;60.90;;;;;;5077846;28;19917;-69
2021/06/07 06:03:24;;;;;;;;;;;24.10;61.00;;;;;;5060682;28;19982;-67
2021/06/07 06:05:49;;;;;;;;;;;24.10;61.00;;;;;;5069712;28;19994;-67
2021/06/07 06:08:16;;;;;;;;;;;24.10;60.90;;;;;;5048863;28;19919;-68
2021/06/07 06:10:42;;;;;;;;;;;24.10;60.80;;;;;;5071226;28;19913;-68
2021/06/07 06:13:07;;;;;;;;;;;24.10;60.70;;;;;;5083439;28;19927;-68
2021/06/07 06:15:32;;;;;;;;;;;24.10;60.70;;;;;;5081614;28;20386;-69
2021/06/07 06:17:58;;;;;;;;;;;24.10;60.60;;;;;;5073302;28;19919;-68
2021/06/07 06:20:28;;;;;;;;;;;24.10;60.50;;;;;;5078050;28;19917;-67
2021/06/07 06:22:54;;;;;;;;;;;24.10;60.30;;;;;;5066235;28;20391;-68
2021/06/07 06:25:19;;;;;;;;;;;24.10;60.10;;;;;;5065386;28;20044;-68
2021/06/07 06:27:45;;;;;;;;;;;24.10;60.00;;;;;;5067831;28;19920;-68
2021/06/07 06:30:11;;;;;;;;;;;24.10;60.00;;;;;;5072523;28;19924;-67
2021/06/07 06:32:37;;;;;;;;;;;24.10;59.80;;;;;;5081830;28;19930;-67
2021/06/07 06:35:02;;;;;;;;;;;24.10;59.70;;;;;;5083742;28;20083;-67
2021/06/07 06:37:28;;;;;;;;;;;24.10;59.60;;;;;;5064733;28;19913;-66
2021/06/07 06:39:53;;;;;;;;;;;24.10;59.70;;;;;;5070978;28;20475;-68
2021/06/07 06:42:19;;;;;;;;;;;24.00;59.60;;;;;;5075531;28;20025;-67
2021/06/07 06:44:44;;;;;;;;;;;24.10;59.60;;;;;;5073589;28;19913;-66
2021/06/07 06:47:10;;;;;;;;;;;24.10;59.50;;;;;;5079764;28;19924;-67
2021/06/07 06:49:36;;;;;;;;;;;24.10;59.50;;;;;;5080668;28;19917;-66
2021/06/07 06:52:02;;;;;;;;;;;24.10;59.50;;;;;;5064759;28;19920;-66
2021/06/07 06:54:30;;;;;;;;;;;24.00;59.30;;;;;;5064183;28;19924;-66
2021/06/07 06:56:55;;;;;;;;;;;24.00;59.30;;;;;;5055863;28;19920;-65
2021/06/07 06:59:21;;;;;;;;;;;24.00;59.40;;;;;;5072935;28;19939;-66
2021/06/07 07:01:46;;;;;;;;;;;24.00;59.50;;;;;;5051773;28;19916;-66
2021/06/07 07:04:12;;;;;;;;;;;23.90;59.40;;;;;;5085292;28;19920;-66
2021/06/07 07:06:37;;;;;;;;;;;24.00;59.40;;;;;;5080205;28;20495;-66
2021/06/07 07:09:06;;;;;;;;;;;23.90;59.30;;;;;;5076545;28;19920;-66
2021/06/07 07:11:31;;;;;;;;;;;23.90;59.30;;;;;;5062507;28;19916;-66
2021/06/07 07:13:56;;;;;;;;;;;24.00;59.30;;;;;;5074758;28;20679;-64
2021/06/07 07:16:22;;;;;;;;;;;24.00;59.20;;;;;;5046126;28;19924;-65
2021/06/07 07:18:48;;;;;;;;;;;24.00;59.20;;;;;;5064805;28;19920;-65
2021/06/07 07:21:13;;;;;;;;;;;24.00;59.20;;;;;;5067334;28;19989;-67
2021/06/07 07:23:38;;;;;;;;;;;24.00;59.30;;;;;;5046693;28;19981;-67
2021/06/07 07:26:04;;;;;;;;;;;24.00;59.50;;;;;;5064401;28;19967;-66
2021/06/07 07:28:29;;;;;;;;;;;24.00;60.00;;;;;;5080795;28;20394;-66
2021/06/07 07:30:55;;;;;;;;;;;23.90;59.80;;;;;;5081804;28;20642;-65
2021/06/07 07:33:20;;;;;;;;;;;24.00;59.80;;;;;;5080082;28;19938;-66
2021/06/07 07:35:46;;;;;;;;;;;24.00;59.60;;;;;;5064756;28;19920;-65
2021/06/07 07:38:11;;;;;;;;;;;24.00;59.40;;;;;;5070390;28;19916;-67
2021/06/07 07:40:38;;;;;;;;;;;24.00;59.30;;;;;;5070937;28;19916;-66
2021/06/07 07:43:04;;;;;;;;;;;24.00;59.20;;;;;;5076217;28;20003;-67
2021/06/07 07:45:29;;;;;;;;;;;24.00;59.20;;;;;;5070818;28;20007;-67
2021/06/07 07:47:55;;;;;;;;;;;24.00;58.80;;;;;;5066826;28;19920;-66
2021/06/07 07:50:21;;;;;;;;;;;23.90;58.60;;;;;;5084444;28;20378;-67
2021/06/07 07:52:46;;;;;;;;;;;24.00;58.90;;;;;;5066381;28;19945;-67
2021/06/07 07:55:15;;;;;;;;;;;24.00;58.60;;;;;;5078522;28;19925;-67
2021/06/07 07:57:41;;;;;;;;;;;23.90;58.30;;;;;;5064685;28;19913;-65
2021/06/07 08:00:10;;;;;;;;;;;23.90;58.30;;;;;;5075916;28;19916;-67
2021/06/07 08:02:35;;;;;;;;;;;23.90;58.30;;;;;;5084520;28;20534;-67
2021/06/07 08:05:00;;;;;;;;;;;23.90;58.20;;;;;;5065929;28;19920;-67
2021/06/07 08:07:26;;;;;;;;;;;23.90;58.10;;;;;;5080683;28;20401;-66
2021/06/07 08:09:51;;;;;;;;;;;23.90;58.30;;;;;;5083496;28;20003;-67
2021/06/07 08:12:17;;;;;;;;;;;23.90;58.20;;;;;;5074144;28;19916;-64
2021/06/07 08:14:42;;;;;;;;;;;23.90;58.20;;;;;;5072178;28;19927;-63
2021/06/07 08:17:10;;;;;;;;;;;23.90;58.10;;;;;;5083200;28;20381;-67
2021/06/07 08:19:35;;;;;;;;;;;23.90;58.00;;;;;;5069819;28;19920;-67
2021/06/07 08:22:01;;;;;;;;;;;23.90;58.10;;;;;;5049908;28;19935;-65
2021/06/07 08:24:26;;;;;;;;;;;23.90;58.10;;;;;;5079831;28;19961;-66
2021/06/07 08:26:52;;;;;;;;;;;23.90;58.20;;;;;;5074467;28;19919;-66
2021/06/07 08:29:17;;;;;;;;;;;23.90;58.20;;;;;;5082116;28;19923;-66
2021/06/07 08:31:42;;;;;;;;;;;23.90;58.20;;;;;;5055422;28;19969;-66
2021/06/07 08:34:08;;;;;;;;;;;23.90;58.00;;;;;;5082668;28;19924;-66
2021/06/07 08:36:34;;;;;;;;;;;23.80;57.90;;;;;;5068290;28;19916;-66
2021/06/07 08:38:59;;;;;;;;;;;23.90;58.10;;;;;;5070231;28;20459;-67
2021/06/07 08:41:25;;;;;;;;;;;23.90;58.10;;;;;;5076441;28;20422;-66
2021/06/07 08:43:50;;;;;;;;;;;23.80;57.90;;;;;;5062655;28;19928;-67
2021/06/07 08:46:16;;;;;;;;;;;23.90;58.00;;;;;;5063561;28;19916;-67
2021/06/07 08:48:43;;;;;;;;;;;23.90;58.10;;;;;;5062256;28;19920;-68
2021/06/07 08:51:08;;;;;;;;;;;23.90;58.20;;;;;;5074235;28;20255;-68
2021/06/07 08:53:34;;;;;;;;;;;23.80;58.10;;;;;;5083160;28;19920;-69
2021/06/07 08:55:59;;;;;;;;;;;23.90;58.20;;;;;;5074359;28;19917;-67
2021/06/07 08:58:25;;;;;;;;;;;23.80;58.10;;;;;;5071718;28;19913;-69
2021/06/07 09:00:50;;;;;;;;;;;23.80;58.20;;;;;;5062684;28;19966;-72
2021/06/07 09:03:16;;;;;;;;;;;23.80;58.20;;;;;;5063679;28;19920;-69
2021/06/07 09:05:42;;;;;;;;;;;23.80;58.20;;;;;;5062774;28;20446;-70
2021/06/07 09:08:09;;;;;;;;;;;23.80;58.30;;;;;;5071772;28;19921;-69
2021/06/07 09:10:36;;;;;;;;;;;23.80;58.30;;;;;;5063102;28;19952;-70
2021/06/07 09:13:04;;;;;;;;;;;23.90;58.00;;;;;;5064641;28;19997;-68
2021/06/07 09:15:32;;;;;;;;;;;23.80;58.20;;;;;;5083072;28;19920;-69
2021/06/07 09:17:58;;;;;;;;;;;23.80;58.30;;;;;;5074179;28;19918;-69
2021/06/07 09:20:24;;;;;;;;;;;23.80;58.30;;;;;;5081918;28;20001;-68
2021/06/07 09:22:50;;;;;;;;;;;23.80;58.30;;;;;;5069744;28;19963;-68
2021/06/07 09:25:16;;;;;;;;;;;23.80;58.30;;;;;;5047633;28;19951;-69
2021/06/07 09:27:57;;;;;;;;;;;23.80;58.30;;;;;;5079498;28;19920;-68
2021/06/07 09:30:24;;;;;;;;;;;23.80;58.20;;;;;;5071022;28;19912;-68
2021/06/07 09:32:49;;;;;;;;;;;23.80;58.20;;;;;;5078193;28;19931;-67
2021/06/07 09:35:15;;;;;;;;;;;23.80;58.20;;;;;;5062663;28;19917;-67
2021/06/07 09:37:40;;;;;;;;;;;23.90;58.30;;;;;;5071861;28;19916;-67
2021/06/07 09:40:19;;;;;;;;;;;23.80;58.20;;;;;;5064690;28;19917;-68
2021/06/07 09:43:03;;;;;;;;;;;23.80;58.30;;;;;;5070835;28;19920;-68
2021/06/07 09:45:46;;;;;;;;;;;23.80;58.40;;;;;;5078991;28;19965;-67
2021/06/07 09:48:13;;;;;;;;;;;23.80;58.20;;;;;;5084883;28;19912;-68
2021/06/07 09:50:51;;;;;;;;;;;23.80;58.20;;;;;;5086730;28;19989;-68
2021/06/07 09:53:36;;;;;;;;;;;23.80;58.10;;;;;;5087511;28;20361;-68
2021/06/07 09:56:02;;;;;;;;;;;23.80;58.30;;;;;;5086029;28;20406;-68
2021/06/07 09:58:29;;;;;;;;;;;23.80;58.30;;;;;;5047971;28;19966;-69
2021/06/07 10:00:54;;;;;;;;;;;23.80;58.20;;;;;;5065078;28;19916;-70
2021/06/07 10:03:21;;;;;;;;;;;23.70;58.10;;;;;;5070851;28;20559;-69
2021/06/07 10:05:47;;;;;;;;;;;23.70;57.90;;;;;;5086344;28;20319;-69
2021/06/07 10:08:12;;;;;;;;;;;23.70;58.10;;;;;;5086501;28;19943;-69
2021/06/07 10:10:38;;;;;;;;;;;23.70;58.10;;;;;;5086420;28;19927;-68
2021/06/07 10:13:07;;;;;;;;;;;23.70;58.20;;;;;;5077129;28;19962;-69
2021/06/07 10:15:34;;;;;;;;;;;23.80;58.20;;;;;;5077454;28;19920;-68
2021/06/07 10:18:00;;;;;;;;;;;23.70;58.30;;;;;;5060199;28;19921;-69
2021/06/07 10:22:51;;;;;;;;;;;23.70;58.40;;;;;;5068955;28;20007;-69
2021/06/07 10:25:16;;;;;;;;;;;23.80;58.50;;;;;;5083486;28;19947;-69
2021/06/07 10:27:42;;;;;;;;;;;23.70;58.10;;;;;;5070026;28;20281;-69
2021/06/07 10:30:20;;;;;;;;;;;23.70;58.40;;;;;;5069769;28;20306;-69
2021/06/07 10:32:46;;;;;;;;;;;23.70;58.60;;;;;;5073527;28;20097;-69
2021/06/07 10:35:12;;;;;;;;;;;23.70;58.50;;;;;;5065503;28;20414;-69
2021/06/07 10:37:56;;;;;;;;;;;23.70;58.60;;;;;;5066023;28;19948;-69
2021/06/07 10:40:21;;;;;;;;;;;23.70;58.50;;;;;;5073948;28;20273;-69
2021/06/07 10:42:57;;;;;;;;;;;23.70;58.70;;;;;;5052415;28;20495;-69
2021/06/07 10:45:23;;;;;;;;;;;23.70;58.80;;;;;;5067933;28;20418;-69
2021/06/07 10:47:49;;;;;;;;;;;23.70;58.70;;;;;;5048649;28;19923;-69
2021/06/07 10:50:16;;;;;;;;;;;23.60;58.60;;;;;;5075298;28;19916;-67
2021/06/07 10:52:53;;;;;;;;;;;23.60;58.90;;;;;;5059191;28;19916;-70
2021/06/07 10:55:24;;;;;;;;;;;23.60;58.60;;;;;;5059121;28;20034;-68
2021/06/07 10:57:54;;;;;;;;;;;23.70;58.70;;;;;;5059812;28;19916;-67
2021/06/07 11:00:22;;;;;;;;;;;23.60;57.70;;;;;;5077921;28;20686;-67
2021/06/07 11:02:48;;;;;;;;;;;23.60;58.30;;;;;;5068498;28;20433;-68
2021/06/07 11:05:14;;;;;;;;;;;23.60;59.20;;;;;;5078582;28;20058;-68
2021/06/07 11:07:44;;;;;;;;;;;23.60;59.40;;;;;;5064022;28;19916;-69
2021/06/07 11:10:28;;;;;;;;;;;23.60;59.10;;;;;;5081849;28;20012;-69
2021/06/07 11:12:58;;;;;;;;;;;23.70;59.00;;;;;;5075571;28;19912;-69
2021/06/07 11:15:24;;;;;;;;;;;23.70;59.10;;;;;;5080110;28;20441;-69
2021/06/07 11:17:50;;;;;;;;;;;23.70;58.90;;;;;;5063690;28;19946;-69
2021/06/07 11:20:34;;;;;;;;;;;23.70;59.20;;;;;;5085066;28;19916;-69
2021/06/07 11:23:04;;;;;;;;;;;23.70;58.90;;;;;;5081744;28;19941;-69
2021/06/07 11:25:29;;;;;;;;;;;23.70;58.90;;;;;;5072680;28;19920;-69
2021/06/07 11:27:55;;;;;;;;;;;23.70;59.00;;;;;;5055781;28;20400;-69
2021/06/07 11:30:21;;;;;;;;;;;23.70;59.10;;;;;;5053275;28;19912;-69
2021/06/07 11:32:46;;;;;;;;;;;23.70;59.00;;;;;;5053309;28;20371;-70
2021/06/07 11:35:30;;;;;;;;;;;23.70;59.00;;;;;;5064675;28;19920;-69
2021/06/07 11:38:12;;;;;;;;;;;23.70;59.30;;;;;;5057205;28;19916;-69
2021/06/07 11:40:38;;;;;;;;;;;23.60;59.10;;;;;;5063058;28;19919;-69
2021/06/07 11:43:04;;;;;;;;;;;23.60;59.30;;;;;;5084631;28;19920;-69
2021/06/07 11:45:38;;;;;;;;;;;23.70;59.40;;;;;;5084980;28;19916;-68
2021/06/07 11:48:04;;;;;;;;;;;23.60;59.30;;;;;;5075906;28;19942;-66
2021/06/07 11:50:31;;;;;;;;;;;23.60;59.30;;;;;;5059442;28;19923;-71
2021/06/07 11:52:57;;;;;;;;;;;23.60;59.30;;;;;;5055169;28;19916;-70
2021/06/07 11:55:32;;;;;;;;;;;23.60;59.40;;;;;;5056612;28;20457;-69
2021/06/07 11:58:06;;;;;;;;;;;23.60;59.50;;;;;;5064160;28;20253;-69
2021/06/07 12:00:33;;;;;;;;;;;23.60;59.50;;;;;;5079159;28;19989;-71
2021/06/07 12:03:03;;;;;;;;;;;23.60;59.50;;;;;;5060780;28;20007;-70
2021/06/07 12:05:29;;;;;;;;;;;23.60;59.30;;;;;;5068795;28;19956;-68
2021/06/07 12:07:54;;;;;;;;;;;23.60;58.70;;;;;;5078688;28;19945;-68
2021/06/07 12:10:20;;;;;;;;;;;23.60;59.10;;;;;;5064830;28;19966;-68
2021/06/07 12:12:45;;;;;;;;;;;23.60;59.10;;;;;;5072171;28;19913;-68
2021/06/07 12:15:17;;;;;;;;;;;23.60;59.10;;;;;;5083883;28;20442;-70
2021/06/07 12:17:46;;;;;;;;;;;23.60;59.10;;;;;;5065604;28;20003;-71
2021/06/07 12:20:12;;;;;;;;;;;23.60;58.90;;;;;;5063823;28;19965;-69
2021/06/07 12:22:38;;;;;;;;;;;23.60;59.00;;;;;;5076998;28;20003;-70
2021/06/07 12:25:18;;;;;;;;;;;23.60;59.10;;;;;;5054661;28;20298;-71
2021/06/07 12:30:27;;;;;;;;;;;23.60;59.20;;;;;;5081170;28;19924;-72
2021/06/07 12:32:53;;;;;;;;;;;23.60;59.30;;;;;;5042688;28;20191;-71
2021/06/07 12:35:22;;;;;;;;;;;23.60;59.10;;;;;;5079169;28;20372;-72
2021/06/07 12:37:51;;;;;;;;;;;23.50;59.30;;;;;;5063552;28;19913;-69
2021/06/07 12:40:19;;;;;;;;;;;23.60;59.30;;;;;;5057749;28;19951;-69
2021/06/07 12:42:45;;;;;;;;;;;23.60;59.40;;;;;;5077391;28;19932;-71
2021/06/07 12:45:14;;;;;;;;;;;23.60;59.30;;;;;;5043309;28;19916;-72
2021/06/07 12:47:39;;;;;;;;;;;23.60;59.50;;;;;;5080321;28;19927;-71
2021/06/07 12:50:08;;;;;;;;;;;23.60;59.90;;;;;;5064635;28;19912;-71
2021/06/07 12:52:33;;;;;;;;;;;23.60;59.50;;;;;;5043333;28;19948;-70
2021/06/07 12:54:59;;;;;;;;;;;23.60;59.60;;;;;;5066418;28;19966;-71
2021/06/07 12:57:27;;;;;;;;;;;23.60;59.80;;;;;;5081066;28;19930;-70
2021/06/07 12:59:53;;;;;;;;;;;23.60;59.60;;;;;;5052127;28;20024;-67
2021/06/07 13:02:31;;;;;;;;;;;23.60;59.60;;;;;;5074198;28;19916;-68
2021/06/07 13:04:57;;;;;;;;;;;23.60;59.60;;;;;;5079859;28;20360;-70
2021/06/07 13:10:36;;;;;;;;;;;23.60;60.20;;;;;;4954395;28;20499;-72
2021/06/07 13:13:02;;;;;;;;;;;23.70;60.30;;;;;;5077432;22;19924;-73
2021/06/07 13:15:27;;;;;;;;;;;23.70;60.10;;;;;;5078838;28;20568;-73
2021/06/07 13:18:03;;;;;;;;;;;23.70;60.10;;;;;;5076938;28;19916;-73
2021/06/07 13:20:28;;;;;;;;;;;23.70;60.10;;;;;;5070191;28;20566;-73
2021/06/07 13:22:54;;;;;;;;;;;23.70;60.10;;;;;;5076410;28;20018;-73
2021/06/07 13:25:19;;;;;;;;;;;23.60;60.30;;;;;;5074726;28;20382;-73
2021/06/07 13:27:45;;;;;;;;;;;23.70;60.40;;;;;;5066111;28;19920;-73
2021/06/07 13:30:11;;;;;;;;;;;23.70;60.50;;;;;;5065109;28;19918;-73
2021/06/07 13:32:37;;;;;;;;;;;23.70;60.50;;;;;;5085857;28;20373;-73
2021/06/07 13:35:02;;;;;;;;;;;23.70;60.50;;;;;;5090578;28;19919;-73
2021/06/07 13:37:32;;;;;;;;;;;23.70;61.00;;;;;;5087375;28;19911;-73
2021/06/07 13:40:06;;;;;;;;;;;23.70;60.50;;;;;;5066645;28;19919;-72
2021/06/07 13:42:43;;;;;;;;;;;23.60;60.60;;;;;;5083987;28;19913;-72
2021/06/07 13:45:10;;;;;;;;;;;23.60;60.50;;;;;;5103044;28;20396;-73
2021/06/07 13:47:37;;;;;;;;;;;23.60;60.70;;;;;;5077840;28;19916;-73
2021/06/07 13:50:03;;;;;;;;;;;23.70;60.70;;;;;;5069168;28;20415;-73
2021/06/07 13:52:35;;;;;;;;;;;23.60;60.70;;;;;;5094055;28;19916;-73
2021/06/07 13:55:00;;;;;;;;;;;23.60;60.80;;;;;;5074787;28;19959;-73
2021/06/07 13:57:26;;;;;;;;;;;23.70;60.80;;;;;;5073732;28;19960;-73
2021/06/07 13:59:51;;;;;;;;;;;23.70;60.70;;;;;;5080054;28;19934;-74
2021/06/07 14:02:17;;;;;;;;;;;23.70;60.80;;;;;;5092361;28;19912;-74
2021/06/07 14:04:43;;;;;;;;;;;23.70;60.90;;;;;;5090539;28;19916;-73
2021/06/07 14:07:09;;;;;;;;;;;23.70;60.80;;;;;;5100470;28;19962;-73
2021/06/07 14:09:35;;;;;;;;;;;23.80;61.10;;;;;;5086943;28;19919;-74
2021/06/07 14:12:00;;;;;;;;;;;23.70;60.90;;;;;;5086535;28;19916;-74
2021/06/07 14:14:26;;;;;;;;;;;23.70;60.90;;;;;;5105657;28;19981;-73
2021/06/07 14:16:52;;;;;;;;;;;23.70;60.80;;;;;;5081978;28;19919;-74
2021/06/07 14:19:17;;;;;;;;;;;23.70;60.60;;;;;;5084656;28;19912;-73
2021/06/07 14:24:39;;;;;;;;;;;23.70;60.80;;;;;;5088224;28;19923;-73